createdAt,value
2023-02-23T00:02:08.267Z,95.10
2023-02-23T00:04:37.391Z,95.60
2023-02-23T00:07:05.773Z,95.40
2023-02-23T00:09:36.527Z,99.90
2023-02-23T00:12:09.486Z,99.90
2023-02-23T00:14:37.065Z,99.90
2023-02-23T00:19:35.448Z,99.90
2023-02-23T00:22:02.195Z,99.90
2023-02-23T00:24:29.908Z,99.90
2023-02-23T00:26:57.329Z,99.80
2023-02-23T00:29:26.950Z,99.90
2023-02-23T00:31:56.756Z,99.90
2023-02-23T00:36:55.470Z,95.60
2023-02-23T00:41:56.487Z,95.60
2023-02-23T00:44:24.332Z,99.90
2023-02-23T00:46:52.474Z,99.90
2023-02-23T00:49:20.397Z,95.60
2023-02-23T01:06:32.774Z,99.90
2023-02-23T01:11:27.493Z,97.30
2023-02-23T01:13:55.592Z,97.90
2023-02-23T01:16:28.293Z,99.90
2023-02-23T01:18:58.961Z,98.10
2023-02-23T01:21:30.768Z,95.70
2023-02-23T01:26:28.533Z,99.90
2023-02-23T01:29:00.357Z,95.90
2023-02-23T01:31:28.260Z,96.00
2023-02-23T01:33:57.917Z,96.10
2023-02-23T01:36:26.322Z,99.90
2023-02-23T01:38:55.774Z,99.90
2023-02-23T01:41:27.607Z,99.80
2023-02-23T01:45:33.963Z,95.70
2023-02-23T01:48:17.845Z,97.10
2023-02-23T01:51:00.110Z,99.30
2023-02-23T01:53:28.737Z,96.20
2023-02-23T01:56:03.336Z,99.30
2023-02-23T02:01:01.864Z,97.00
2023-02-23T02:03:31.589Z,97.20
2023-02-23T02:06:02.045Z,97.40
2023-02-23T02:08:32.982Z,99.90
2023-02-23T02:10:59.827Z,99.90
2023-02-23T02:13:30.764Z,99.50
2023-02-23T02:16:20.757Z,99.90
2023-02-23T02:20:33.235Z,97.70
2023-02-23T02:26:39.718Z,99.60
2023-02-23T02:29:38.820Z,99.90
2023-02-23T02:33:59.079Z,98.00
2023-02-23T02:37:08.585Z,98.00
2023-02-23T02:41:53.569Z,97.90
2023-02-23T02:44:49.163Z,99.90
2023-02-23T02:47:37.959Z,98.30
2023-02-23T02:50:40.917Z,99.70
2023-02-23T02:53:08.466Z,98.30
2023-02-23T02:55:37.964Z,98.30
2023-02-23T02:58:08.104Z,99.90
2023-02-23T03:01:01.893Z,99.90
2023-02-23T03:04:05.324Z,99.90
2023-02-23T03:07:04.802Z,99.90
2023-02-23T03:10:45.267Z,98.40
2023-02-23T03:14:59.946Z,99.90
2023-02-23T03:18:06.402Z,99.90
2023-02-23T03:21:02.191Z,98.40
2023-02-23T03:24:11.471Z,98.40
2023-02-23T03:27:06.586Z,98.30
2023-02-23T03:32:10.326Z,99.30
2023-02-23T03:36:31.829Z,98.00
2023-02-23T03:39:39.840Z,97.70
2023-02-23T03:42:29.871Z,97.70
2023-02-23T03:50:57.422Z,97.70
2023-02-23T03:53:47.776Z,99.90
2023-02-23T04:02:05.061Z,99.80
2023-02-23T04:04:52.045Z,99.90
2023-02-23T04:10:25.466Z,99.90
2023-02-23T04:13:14.556Z,98.10
2023-02-23T04:15:58.708Z,98.10
2023-02-23T04:18:32.486Z,97.90
2023-02-23T04:25:56.708Z,99.90
2023-02-23T04:28:24.804Z,99.90
2023-02-23T04:30:53.621Z,99.90
2023-02-23T04:33:21.603Z,99.90
2023-02-23T04:38:18.254Z,99.90
2023-02-23T04:40:45.241Z,99.90
2023-02-23T04:43:12.297Z,97.90
2023-02-23T04:45:39.094Z,99.90
2023-02-23T04:48:07.060Z,97.90
2023-02-23T04:50:33.680Z,99.90
2023-02-23T04:53:02.309Z,99.90
2023-02-23T04:55:28.762Z,99.90
2023-02-23T04:58:00.013Z,99.90
2023-02-23T05:00:28.792Z,99.90
2023-02-23T05:02:57.299Z,99.90
2023-02-23T05:05:25.409Z,99.90
2023-02-23T05:07:54.218Z,97.40
2023-02-23T05:10:24.846Z,99.90
2023-02-23T05:12:53.189Z,99.90
2023-02-23T05:15:19.663Z,97.40
2023-02-23T05:17:47.684Z,99.90
2023-02-23T05:20:14.981Z,99.90
2023-02-23T05:22:41.990Z,99.90
2023-02-23T05:25:11.694Z,99.90
2023-02-23T05:27:39.701Z,99.90
2023-02-23T05:30:09.873Z,99.90
2023-02-23T05:35:09.930Z,98.40
2023-02-23T05:37:36.409Z,98.50
2023-02-23T05:40:04.338Z,99.90
2023-02-23T05:44:59.749Z,99.90
2023-02-23T05:49:55.177Z,99.90
2023-02-23T05:54:54.819Z,99.90
2023-02-23T05:57:23.593Z,99.90
2023-02-23T05:59:53.730Z,99.90
2023-02-23T06:04:50.915Z,99.90
2023-02-23T06:07:19.625Z,99.90
2023-02-23T06:09:47.258Z,99.90
2023-02-23T06:12:15.520Z,99.90
2023-02-23T06:14:44.278Z,99.90
2023-02-23T06:17:12.888Z,99.90
2023-02-23T06:19:39.498Z,98.30
2023-02-23T06:22:08.009Z,98.20
2023-02-23T06:24:37.706Z,98.30
2023-02-23T06:27:07.014Z,99.90
2023-02-23T06:29:37.345Z,98.00
2023-02-23T06:32:05.962Z,98.00
2023-02-23T06:35:26.493Z,99.90
2023-02-23T06:38:10.365Z,99.90
2023-02-23T06:40:37.896Z,97.20
2023-02-23T06:43:05.482Z,99.90
2023-02-23T06:45:34.572Z,96.60
2023-02-23T06:48:02.886Z,99.90
2023-02-23T06:50:35.429Z,96.20
2023-02-23T06:53:06.160Z,99.90
2023-02-23T06:55:34.848Z,99.90
2023-02-23T06:58:07.423Z,99.90
2023-02-23T07:00:36.697Z,95.60
2023-02-23T07:03:50.796Z,99.90
2023-02-23T07:06:17.320Z,99.80
2023-02-23T07:08:45.391Z,99.60
2023-02-23T07:11:15.108Z,94.50
2023-02-23T07:13:43.121Z,94.10
2023-02-23T07:16:11.832Z,94.30
2023-02-23T07:18:38.822Z,93.60
2023-02-23T07:21:07.173Z,93.80
2023-02-23T07:23:34.622Z,93.30
2023-02-23T07:26:01.696Z,93.00
2023-02-23T07:28:29.221Z,93.10
2023-02-23T07:30:57.111Z,93.00
2023-02-23T07:33:24.344Z,93.20
2023-02-23T07:35:52.401Z,92.50
2023-02-23T07:38:19.432Z,92.40
2023-02-23T07:40:45.990Z,92.30
2023-02-23T07:43:12.148Z,92.40
2023-02-23T07:45:38.893Z,91.90
2023-02-23T07:48:06.814Z,91.70
2023-02-23T07:50:32.997Z,91.50
2023-02-23T07:52:59.972Z,91.00
2023-02-23T07:55:28.434Z,90.90
2023-02-23T07:57:54.866Z,90.70
2023-02-23T08:00:22.369Z,90.30
2023-02-23T08:02:49.063Z,90.00
2023-02-23T08:05:16.030Z,89.50
2023-02-23T08:07:42.231Z,89.00
2023-02-23T08:10:10.353Z,87.40
2023-02-23T08:12:37.475Z,87.00
2023-02-23T08:15:08.611Z,86.10
2023-02-23T08:17:37.282Z,85.00
2023-02-23T08:20:06.037Z,82.60
2023-02-23T08:22:48.359Z,80.60
2023-02-23T08:25:17.327Z,81.40
2023-02-23T08:27:43.506Z,79.30
2023-02-23T08:30:11.138Z,78.90
2023-02-23T08:32:37.598Z,79.70
2023-02-23T08:35:07.071Z,79.70
2023-02-23T08:37:33.788Z,79.80
2023-02-23T08:40:00.199Z,79.10
2023-02-23T08:42:28.230Z,78.20
2023-02-23T08:44:55.413Z,77.70
2023-02-23T08:47:23.645Z,77.50
2023-02-23T08:49:50.765Z,77.30
2023-02-23T08:52:17.831Z,76.00
2023-02-23T08:54:47.730Z,75.90
2023-02-23T08:57:13.963Z,77.20
2023-02-23T08:59:40.887Z,73.40
2023-02-23T09:02:11.905Z,72.90
2023-02-23T09:04:41.922Z,72.60
2023-02-23T09:07:11.118Z,73.20
2023-02-23T09:09:39.812Z,72.50
2023-02-23T09:12:07.521Z,73.00
2023-02-23T09:14:36.734Z,74.70
2023-02-23T09:17:04.142Z,75.40
2023-02-23T09:19:31.035Z,73.20
2023-02-23T09:21:58.112Z,74.60
2023-02-23T09:24:25.858Z,72.60
2023-02-23T09:26:55.588Z,72.80
2023-02-23T09:29:23.649Z,71.70
2023-02-23T09:31:53.335Z,70.50
2023-02-23T09:34:24.473Z,73.30
2023-02-23T09:36:51.493Z,73.60
2023-02-23T09:39:26.379Z,80.50
2023-02-23T09:42:58.421Z,72.60
2023-02-23T09:45:52.656Z,70.50
2023-02-23T09:48:27.764Z,68.40
2023-02-23T09:50:57.983Z,70.60
2023-02-23T09:53:34.275Z,70.30
2023-02-23T09:56:05.536Z,70.80
2023-02-23T09:58:34.818Z,69.30
2023-02-23T10:01:42.821Z,72.30
2023-02-23T10:04:58.989Z,71.70
2023-02-23T10:07:46.641Z,68.80
2023-02-23T10:12:09.319Z,69.40
2023-02-23T10:18:46.980Z,70.40
2023-02-23T10:21:56.597Z,68.60
2023-02-23T10:24:41.024Z,71.20
2023-02-23T10:27:17.340Z,69.00
2023-02-23T10:29:52.312Z,69.40
2023-02-23T10:32:22.605Z,70.10
2023-02-23T10:34:52.683Z,68.70
2023-02-23T10:37:20.283Z,67.80
2023-02-23T10:39:50.078Z,70.20
2023-02-23T10:42:20.613Z,67.20
2023-02-23T10:44:47.589Z,69.40
2023-02-23T10:47:16.198Z,68.30
2023-02-23T10:49:52.279Z,69.40
2023-02-23T10:52:28.427Z,74.60
2023-02-23T10:54:55.743Z,70.60
2023-02-23T10:57:29.093Z,70.80
2023-02-23T11:00:41.615Z,71.70
2023-02-23T11:03:42.879Z,70.10
2023-02-23T11:07:07.992Z,72.00
2023-02-23T11:09:45.822Z,71.20
2023-02-23T11:12:42.294Z,74.00
2023-02-23T11:16:14.863Z,72.90
2023-02-23T11:18:56.162Z,72.70
2023-02-23T11:21:35.086Z,72.60
2023-02-23T11:24:48.424Z,72.40
2023-02-23T11:27:23.696Z,73.70
2023-02-23T11:29:52.191Z,74.60
2023-02-23T11:32:26.575Z,74.40
2023-02-23T11:35:46.855Z,73.40
2023-02-23T11:38:22.681Z,72.30
2023-02-23T11:41:04.093Z,73.40
2023-02-23T11:43:31.111Z,70.80
2023-02-23T11:46:01.826Z,71.20
2023-02-23T11:49:19.083Z,71.30
2023-02-23T11:51:54.983Z,70.90
2023-02-23T11:54:33.342Z,70.70
2023-02-23T11:57:01.935Z,70.00
2023-02-23T11:59:38.469Z,69.70
2023-02-23T12:02:27.731Z,72.60
2023-02-23T12:05:08.852Z,70.70
2023-02-23T12:08:27.069Z,72.60
2023-02-23T12:10:55.215Z,71.60
2023-02-23T12:14:51.654Z,72.60
2023-02-23T12:17:26.994Z,70.30
2023-02-23T12:20:29.761Z,70.30
2023-02-23T12:23:06.228Z,70.90
2023-02-23T12:25:49.195Z,70.20
2023-02-23T12:29:01.795Z,71.20
2023-02-23T12:31:40.285Z,70.30
2023-02-23T12:35:02.449Z,70.10
2023-02-23T12:39:18.046Z,70.40
2023-02-23T12:42:04.867Z,72.20
2023-02-23T12:45:02.961Z,71.30
2023-02-23T12:47:42.881Z,71.20
2023-02-23T12:50:20.927Z,70.70
2023-02-23T12:52:59.048Z,72.20
2023-02-23T13:02:33.420Z,71.60
2023-02-23T13:05:34.133Z,72.30
2023-02-23T13:08:26.299Z,72.40
2023-02-23T13:11:30.637Z,71.70
2023-02-23T13:16:50.858Z,70.70
2023-02-23T13:20:04.906Z,71.70
2023-02-23T13:22:43.208Z,70.10
2023-02-23T13:25:29.094Z,70.60
2023-02-23T13:27:59.925Z,71.40
2023-02-23T13:30:32.036Z,73.00
2023-02-23T13:33:01.813Z,70.60
2023-02-23T13:35:29.426Z,70.50
2023-02-23T13:38:41.908Z,70.40
2023-02-23T13:41:22.244Z,70.10
2023-02-23T13:44:30.841Z,70.70
2023-02-23T13:54:02.218Z,70.10
2023-02-23T13:56:31.151Z,69.90
2023-02-23T13:59:07.612Z,70.30
2023-02-23T14:01:43.479Z,70.20
2023-02-23T14:04:16.193Z,70.60
2023-02-23T14:07:02.587Z,70.00
2023-02-23T14:09:37.652Z,70.30
2023-02-23T14:12:25.387Z,70.60
2023-02-23T14:14:54.590Z,70.40
2023-02-23T14:17:40.339Z,72.50
2023-02-23T14:20:29.228Z,70.90
2023-02-23T14:33:21.768Z,71.20
2023-02-23T14:35:48.600Z,71.50
2023-02-23T14:38:47.950Z,73.20
2023-02-23T14:41:27.168Z,73.30
2023-02-23T14:44:00.159Z,73.60
2023-02-23T14:46:26.893Z,74.40
2023-02-23T14:49:11.495Z,73.40
2023-02-23T14:51:41.609Z,74.20
2023-02-23T14:54:14.848Z,74.20
2023-02-23T14:56:49.732Z,74.20
2023-02-23T14:59:26.787Z,75.00
2023-02-23T15:01:55.396Z,75.00
2023-02-23T15:04:29.402Z,75.30
2023-02-23T15:06:58.109Z,74.50
2023-02-23T15:09:38.293Z,74.90
2023-02-23T15:12:14.162Z,74.80
2023-02-23T15:14:40.431Z,75.30
2023-02-23T15:17:16.387Z,75.30
2023-02-23T15:19:44.579Z,75.90
2023-02-23T15:24:08.411Z,75.90
2023-02-23T15:26:37.842Z,76.50
2023-02-23T15:29:14.828Z,76.40
2023-02-23T15:31:50.443Z,77.70
2023-02-23T15:34:29.922Z,78.00
2023-02-23T15:37:02.242Z,78.80
2023-02-23T15:41:06.477Z,79.10
2023-02-23T15:43:35.811Z,79.30
2023-02-23T15:46:13.346Z,79.50
2023-02-23T15:48:46.372Z,79.50
2023-02-23T15:51:49.674Z,80.80
2023-02-23T15:54:28.081Z,80.40
2023-02-23T15:56:58.448Z,80.90
2023-02-23T16:00:18.411Z,81.30
2023-02-23T16:02:46.831Z,81.90
2023-02-23T16:05:21.938Z,82.90
2023-02-23T16:07:56.889Z,83.00
2023-02-23T16:10:25.531Z,83.40
2023-02-23T16:12:54.226Z,84.00
2023-02-23T16:15:29.062Z,84.40
2023-02-23T16:18:04.357Z,85.00
2023-02-23T16:20:43.033Z,84.60
2023-02-23T16:23:33.333Z,85.20
2023-02-23T16:26:59.739Z,90.60
2023-02-23T16:29:44.379Z,86.10
2023-02-23T16:32:19.986Z,86.30
2023-02-23T16:34:50.678Z,86.80
2023-02-23T16:37:29.412Z,87.20
2023-02-23T16:40:01.110Z,87.90
2023-02-23T16:42:33.200Z,88.80
2023-02-23T16:45:04.880Z,88.70
2023-02-23T16:47:47.617Z,88.70
2023-02-23T16:50:25.034Z,89.30
2023-02-23T16:52:57.265Z,90.00
2023-02-23T16:55:34.755Z,90.30
2023-02-23T16:58:10.790Z,90.60
2023-02-23T17:00:46.757Z,91.00
2023-02-23T17:03:52.677Z,91.30
2023-02-23T17:06:26.671Z,91.60
2023-02-23T17:08:58.858Z,92.20
2023-02-23T17:11:29.067Z,92.30
2023-02-23T17:13:56.491Z,92.60
2023-02-23T17:16:25.600Z,92.90
2023-02-23T17:19:01.675Z,92.70
2023-02-23T17:21:42.905Z,93.00
2023-02-23T17:24:14.110Z,92.90
2023-02-23T17:26:48.131Z,92.80
2023-02-23T17:29:19.080Z,93.00
2023-02-23T17:31:50.024Z,93.60
2023-02-23T17:34:30.375Z,93.00
2023-02-23T17:36:58.387Z,92.90
2023-02-23T17:39:28.396Z,93.00
2023-02-23T17:41:56.836Z,93.00
2023-02-23T17:44:26.137Z,93.50
2023-02-23T17:46:53.228Z,93.70
2023-02-23T17:49:20.651Z,94.00
2023-02-23T17:51:48.394Z,94.50
2023-02-23T17:54:18.422Z,94.30
2023-02-23T17:56:46.984Z,94.70
2023-02-23T17:59:15.605Z,94.90
2023-02-23T18:01:45.611Z,95.00
2023-02-23T18:04:16.032Z,95.50
2023-02-23T18:06:42.674Z,95.10
2023-02-23T18:09:09.930Z,95.40
2023-02-23T18:11:38.723Z,95.30
2023-02-23T18:14:05.240Z,95.40
2023-02-23T18:16:34.322Z,95.50
2023-02-23T18:19:00.969Z,95.60
2023-02-23T18:21:28.469Z,96.10
2023-02-23T18:23:56.974Z,95.80
2023-02-23T18:26:26.474Z,95.90
2023-02-23T18:29:00.175Z,96.10
2023-02-23T18:31:28.871Z,96.10
2023-02-23T18:34:01.649Z,96.20
2023-02-23T18:36:32.863Z,96.30
2023-02-23T18:39:02.234Z,96.40
2023-02-23T18:41:30.674Z,96.60
2023-02-23T18:44:05.441Z,96.80
2023-02-23T18:46:35.054Z,96.90
2023-02-23T18:49:04.245Z,97.30
2023-02-23T18:51:32.156Z,97.50
2023-02-23T18:54:01.611Z,97.20
2023-02-23T18:56:30.292Z,97.70
2023-02-23T18:58:59.047Z,97.70
2023-02-23T19:01:28.455Z,97.60
2023-02-23T19:03:58.623Z,98.00
2023-02-23T19:06:27.502Z,98.30
2023-02-23T19:08:58.601Z,98.30
2023-02-23T19:11:31.690Z,98.20
2023-02-23T19:14:01.140Z,98.50
2023-02-23T19:16:31.380Z,99.00
2023-02-23T19:18:59.520Z,99.00
2023-02-23T19:21:28.386Z,99.20
2023-02-23T19:23:59.063Z,99.10
2023-02-23T19:26:28.867Z,98.90
2023-02-23T19:28:56.789Z,99.10
2023-02-23T19:31:26.258Z,99.20
2023-02-23T19:33:55.300Z,98.60
2023-02-23T19:36:33.852Z,98.60
2023-02-23T19:39:10.357Z,99.00
2023-02-23T19:41:38.790Z,99.30
2023-02-23T19:44:06.327Z,99.40
2023-02-23T19:46:37.119Z,99.50
2023-02-23T19:49:05.455Z,99.70
2023-02-23T19:51:32.119Z,99.40
2023-02-23T19:54:02.374Z,99.00
2023-02-23T19:56:32.193Z,99.10
2023-02-23T19:58:59.832Z,99.10
2023-02-23T20:01:27.280Z,98.80
2023-02-23T20:03:56.660Z,98.80
2023-02-23T20:06:26.866Z,98.60
2023-02-23T20:08:55.510Z,98.90
2023-02-23T20:11:24.234Z,98.90
2023-02-23T20:13:53.118Z,98.80
2023-02-23T20:16:20.613Z,99.00
2023-02-23T20:18:47.533Z,99.40
2023-02-23T20:21:20.514Z,99.90
2023-02-23T20:23:47.923Z,99.90
2023-02-23T20:26:21.219Z,99.90
2023-02-23T20:28:49.369Z,99.90
2023-02-23T20:31:22.038Z,99.90
2023-02-23T20:33:49.600Z,99.90
2023-02-23T20:36:18.746Z,99.90
2023-02-23T20:38:46.498Z,99.90
2023-02-23T20:41:16.122Z,99.90
2023-02-23T20:43:43.685Z,99.90
2023-02-23T20:46:14.115Z,99.90
2023-02-23T20:48:43.402Z,99.90
2023-02-23T20:51:18.198Z,99.90
2023-02-23T20:53:49.951Z,99.90
2023-02-23T20:56:23.335Z,99.70
2023-02-23T20:58:53.609Z,99.70
2023-02-23T21:01:28.289Z,99.10
2023-02-23T21:03:56.384Z,98.70
2023-02-23T21:06:25.816Z,98.00
2023-02-23T21:08:56.984Z,97.70
2023-02-23T21:11:26.852Z,97.50
2023-02-23T21:13:53.727Z,97.30
2023-02-23T21:16:22.866Z,97.00
2023-02-23T21:18:54.147Z,96.80
2023-02-23T21:21:22.497Z,96.60
2023-02-23T21:23:51.336Z,96.50
2023-02-23T21:26:20.831Z,96.50
2023-02-23T21:28:49.755Z,96.50
2023-02-23T21:31:17.031Z,96.50
2023-02-23T21:33:47.112Z,96.30
2023-02-23T21:36:17.726Z,96.40
2023-02-23T21:38:46.919Z,96.30
2023-02-23T21:41:16.212Z,96.40
2023-02-23T21:43:46.223Z,96.50
2023-02-23T21:46:16.892Z,96.50
2023-02-23T21:48:44.620Z,96.20
2023-02-23T21:51:14.525Z,96.10
2023-02-23T21:53:45.832Z,95.90
2023-02-23T21:56:18.542Z,96.00
2023-02-23T21:58:52.175Z,96.10
2023-02-23T22:01:23.497Z,96.00
2023-02-23T22:03:53.316Z,96.20
2023-02-23T22:06:23.684Z,96.20
2023-02-23T22:08:52.310Z,96.30
2023-02-23T22:11:27.212Z,96.20
2023-02-23T22:13:59.753Z,96.20
2023-02-23T22:16:31.470Z,96.10
2023-02-23T22:19:04.580Z,96.30
2023-02-23T22:21:36.168Z,96.50
2023-02-23T22:24:07.275Z,96.60
2023-02-23T22:26:36.739Z,96.70
2023-02-23T22:29:05.261Z,96.70
2023-02-23T22:31:33.757Z,96.70
2023-02-23T22:34:00.795Z,96.80
2023-02-23T22:36:28.810Z,96.70
2023-02-23T22:38:58.463Z,96.60
2023-02-23T22:41:29.700Z,97.10
2023-02-23T22:44:03.133Z,96.70
2023-02-23T22:46:31.140Z,97.10
2023-02-23T22:48:58.523Z,96.80
2023-02-23T22:51:25.088Z,96.90
2023-02-23T22:53:57.141Z,97.30
2023-02-23T22:56:24.893Z,97.40
2023-02-23T22:59:05.448Z,97.20
2023-02-23T23:01:41.727Z,96.90
2023-02-23T23:04:14.373Z,97.00
2023-02-23T23:06:43.488Z,96.70
2023-02-23T23:09:15.909Z,96.70
2023-02-23T23:11:45.456Z,96.60
2023-02-23T23:14:19.065Z,96.60
2023-02-23T23:16:50.046Z,96.70
2023-02-23T23:19:27.560Z,96.60
2023-02-23T23:21:59.971Z,96.50
2023-02-23T23:24:31.916Z,96.30
2023-02-23T23:27:02.147Z,96.00
2023-02-23T23:29:31.614Z,95.70
2023-02-23T23:32:02.236Z,95.40
2023-02-23T23:34:34.826Z,95.20
2023-02-23T23:37:06.316Z,95.00
2023-02-23T23:39:34.940Z,94.80
2023-02-23T23:42:05.542Z,94.70
2023-02-23T23:44:34.206Z,94.50
2023-02-23T23:47:07.215Z,94.60
2023-02-23T23:49:42.352Z,94.50
2023-02-23T23:52:17.091Z,94.30
2023-02-23T23:54:48.873Z,94.20
2023-02-23T23:57:17.495Z,94.20
2023-02-23T23:59:53.243Z,94.10
